Time;durP1;ratioP1;P1;durP2;ratioP2;P2;SDS_P1;SDS_P2;PMS_P1;PMS_P2;Temp;Humidity;BMP_temperature;BMP_pressure;BME280_temperature;BME280_humidity;BME280_pressure;Samples;Min_cycle;Max_cycle;Signal;HPM_P1;HPM_P2
2023/01/10 00:00:26;;;;;;;10.00;4.63;;;5.50;99.90;;;;;;5071114;28;20196;-82
2023/01/10 00:02:52;;;;;;;9.50;4.70;;;5.60;99.90;;;;;;5070827;28;20176;-81
2023/01/10 00:05:18;;;;;;;9.73;4.23;;;5.50;99.90;;;;;;5069654;28;20172;-81
2023/01/10 00:07:44;;;;;;;6.63;3.87;;;5.50;99.90;;;;;;5070485;28;20179;-81
2023/01/10 00:10:10;;;;;;;9.67;4.50;;;5.50;99.90;;;;;;5070463;28;20182;-81
2023/01/10 00:15:20;;;;;;;8.87;3.53;;;5.40;99.90;;;;;;5072036;28;20175;-82
2023/01/10 00:17:46;;;;;;;13.47;4.00;;;5.40;99.90;;;;;;5070561;28;20179;-82
2023/01/10 00:20:11;;;;;;;9.83;4.10;;;5.40;99.90;;;;;;5070103;28;20241;-81
2023/01/10 00:22:37;;;;;;;12.37;3.67;;;5.40;99.90;;;;;;5071535;28;20168;-81
2023/01/10 00:25:03;;;;;;;12.27;3.50;;;5.50;99.90;;;;;;5069627;28;20179;-81
2023/01/10 00:27:28;;;;;;;12.17;3.57;;;5.50;99.90;;;;;;5071509;28;20168;-81
2023/01/10 00:29:56;;;;;;;7.23;3.73;;;5.50;99.90;;;;;;5070043;28;20639;-82
2023/01/10 00:32:22;;;;;;;7.97;3.77;;;5.50;99.90;;;;;;5071157;28;20156;-81
2023/01/10 00:34:48;;;;;;;7.33;3.77;;;5.60;99.90;;;;;;5069961;28;20221;-81
2023/01/10 00:37:13;;;;;;;8.90;3.43;;;5.60;99.90;;;;;;5069662;28;20191;-81
2023/01/10 00:39:39;;;;;;;7.53;3.20;;;5.60;99.90;;;;;;5071429;28;20199;-81
2023/01/10 00:44:50;;;;;;;8.87;3.83;;;5.70;99.90;;;;;;5070642;28;20164;-81
2023/01/10 00:47:17;;;;;;;10.33;3.30;;;5.70;99.90;;;;;;5070399;28;20176;-81
2023/01/10 00:49:43;;;;;;;14.17;4.00;;;5.80;99.90;;;;;;5067716;28;20233;-81
2023/01/10 00:52:08;;;;;;;10.53;3.17;;;5.70;99.90;;;;;;5066629;28;20199;-81
2023/01/10 00:54:34;;;;;;;8.57;3.90;;;5.80;99.90;;;;;;5070274;28;20179;-81
2023/01/10 00:56:59;;;;;;;11.20;3.60;;;5.80;99.90;;;;;;5069605;28;20183;-81
2023/01/10 00:59:25;;;;;;;8.97;4.07;;;5.80;99.90;;;;;;5069641;28;20245;-81
2023/01/10 01:01:51;;;;;;;10.10;3.13;;;5.80;99.90;;;;;;5069158;28;20309;-80
2023/01/10 01:04:17;;;;;;;10.73;3.20;;;5.80;99.90;;;;;;5069295;28;20176;-81
2023/01/10 01:06:44;;;;;;;8.77;3.07;;;5.80;99.90;;;;;;5068977;28;20551;-81
2023/01/10 01:09:10;;;;;;;4.97;2.83;;;5.90;99.90;;;;;;5068101;28;20547;-81
2023/01/10 01:11:35;;;;;;;8.13;2.97;;;5.90;99.90;;;;;;5069774;28;20299;-81
2023/01/10 01:14:01;;;;;;;9.87;3.20;;;5.90;99.90;;;;;;5070237;28;20180;-81
2023/01/10 01:16:26;;;;;;;13.00;2.40;;;5.90;99.90;;;;;;5069306;28;20187;-81
2023/01/10 01:18:52;;;;;;;13.67;3.00;;;5.90;99.90;;;;;;5068762;28;20211;-81
2023/01/10 01:21:18;;;;;;;11.60;2.40;;;5.90;99.90;;;;;;5068930;28;20210;-81
2023/01/10 01:23:43;;;;;;;8.70;2.30;;;6.00;99.90;;;;;;5070927;28;20168;-81
2023/01/10 01:26:09;;;;;;;7.57;2.40;;;6.00;99.90;;;;;;5069892;28;20214;-81
2023/01/10 01:28:35;;;;;;;7.80;2.47;;;6.10;99.90;;;;;;5069505;28;20182;-80
2023/01/10 01:31:08;;;;;;;7.97;2.53;;;6.10;99.90;;;;;;5069642;28;20191;-81
2023/01/10 01:33:34;;;;;;;9.00;2.33;;;6.10;99.90;;;;;;5070643;28;20171;-81
2023/01/10 01:36:00;;;;;;;7.67;2.53;;;6.10;99.90;;;;;;5072009;28;20175;-81
2023/01/10 01:38:25;;;;;;;8.20;2.13;;;6.10;99.90;;;;;;5069407;28;20241;-81
2023/01/10 01:40:51;;;;;;;9.10;2.23;;;6.10;99.90;;;;;;5069779;28;20207;-80
2023/01/10 01:43:28;;;;;;;11.60;1.97;;;6.10;99.90;;;;;;5069931;28;20210;-81
2023/01/10 01:45:56;;;;;;;7.83;2.00;;;6.10;99.90;;;;;;5069867;28;20523;-80
2023/01/10 01:48:37;;;;;;;11.37;2.13;;;6.10;99.90;;;;;;5071610;28;20164;-81
2023/01/10 01:51:15;;;;;;;11.40;2.63;;;6.10;99.90;;;;;;5071052;28;20191;-80
2023/01/10 01:54:10;;;;;;;7.60;2.10;;;6.10;99.90;;;;;;5072113;28;20183;-81
2023/01/10 01:56:48;;;;;;;6.40;2.17;;;6.10;99.90;;;;;;5068428;28;20188;-80
2023/01/10 01:59:21;;;;;;;7.70;2.07;;;6.00;99.90;;;;;;5071156;28;20187;-80
2023/01/10 02:01:51;;;;;;;7.20;2.37;;;6.00;99.90;;;;;;5074111;28;20195;-80
2023/01/10 02:04:21;;;;;;;12.20;2.10;;;6.00;99.90;;;;;;5075878;28;20152;-81
2023/01/10 02:06:50;;;;;;;9.40;2.00;;;6.00;99.90;;;;;;5075178;28;20163;-81
2023/01/10 02:09:25;;;;;;;9.93;2.50;;;6.00;99.90;;;;;;5069530;28;20206;-80
2023/01/10 02:11:51;;;;;;;8.53;2.40;;;6.00;99.90;;;;;;5069706;28;20237;-81
2023/01/10 02:14:19;;;;;;;6.93;2.17;;;6.00;99.90;;;;;;5069633;28;20171;-80
2023/01/10 02:16:45;;;;;;;10.53;2.30;;;6.00;99.90;;;;;;5069669;28;20170;-81
2023/01/10 02:19:36;;;;;;;8.90;2.87;;;5.90;99.90;;;;;;5069456;28;20191;-81
2023/01/10 02:22:02;;;;;;;7.57;1.90;;;5.90;99.90;;;;;;5067022;28;20217;-81
2023/01/10 02:24:27;;;;;;;9.07;2.37;;;5.90;99.90;;;;;;5067607;28;20179;-81
2023/01/10 02:27:13;;;;;;;7.67;2.30;;;5.90;99.90;;;;;;5069072;28;20197;-81
2023/01/10 02:30:01;;;;;;;8.67;2.30;;;5.80;99.90;;;;;;5067788;28;20239;-81
2023/01/10 02:33:09;;;;;;;9.17;2.17;;;5.80;99.90;;;;;;5067131;28;20183;-80
2023/01/10 02:35:44;;;;;;;14.27;2.70;;;5.80;99.90;;;;;;5067832;28;20194;-81
2023/01/10 02:38:46;;;;;;;4.53;2.03;;;5.70;99.90;;;;;;5069276;28;20198;-80
2023/01/10 02:41:49;;;;;;;10.57;2.17;;;5.70;99.90;;;;;;5061078;28;20218;-81
2023/01/10 02:44:35;;;;;;;10.93;2.30;;;5.70;99.90;;;;;;5068910;28;20179;-81
2023/01/10 02:47:03;;;;;;;5.87;2.00;;;5.70;99.90;;;;;;5069319;28;20186;-80
2023/01/10 02:49:29;;;;;;;7.60;1.80;;;5.80;99.90;;;;;;5068668;28;20215;-80
2023/01/10 02:51:55;;;;;;;10.77;1.97;;;5.60;99.90;;;;;;5067536;28;20225;-80
2023/01/10 02:54:26;;;;;;;7.00;2.00;;;5.60;99.90;;;;;;5069090;28;20183;-81
2023/01/10 02:56:52;;;;;;;12.67;2.43;;;5.60;99.90;;;;;;5068682;28;20164;-80
2023/01/10 02:59:35;;;;;;;10.60;2.60;;;5.60;99.90;;;;;;5069394;28;20214;-81
2023/01/10 03:02:27;;;;;;;10.27;2.17;;;5.60;99.90;;;;;;5069042;28;20679;-80
2023/01/10 03:04:52;;;;;;;8.03;1.90;;;5.60;99.90;;;;;;5069501;28;20167;-81
2023/01/10 03:07:41;;;;;;;11.83;2.63;;;5.60;99.90;;;;;;5070867;28;20258;-80
2023/01/10 03:10:15;;;;;;;10.10;2.53;;;5.60;99.90;;;;;;5074390;28;20166;-81
2023/01/10 03:12:50;;;;;;;10.93;2.37;;;5.60;99.90;;;;;;5072283;28;20175;-80
2023/01/10 03:15:18;;;;;;;8.47;2.27;;;5.60;99.90;;;;;;5073122;28;20175;-81
2023/01/10 03:17:49;;;;;;;16.07;2.30;;;5.60;99.90;;;;;;5073416;28;20175;-80
2023/01/10 03:20:16;;;;;;;9.13;2.63;;;5.50;99.90;;;;;;5074169;28;20211;-81
2023/01/10 03:22:43;;;;;;;7.80;2.17;;;5.50;99.90;;;;;;5077095;28;20175;-80
2023/01/10 03:25:13;;;;;;;14.10;2.73;;;5.50;99.90;;;;;;5078007;28;20168;-82
2023/01/10 03:28:01;;;;;;;13.23;2.30;;;5.40;99.90;;;;;;5082008;28;20154;-82
2023/01/10 03:30:51;;;;;;;9.20;2.20;;;5.50;99.90;;;;;;5079467;28;20192;-80
2023/01/10 03:33:26;;;;;;;10.43;2.77;;;5.40;99.90;;;;;;5071482;28;20206;-80
2023/01/10 03:36:15;;;;;;;7.13;2.57;;;5.30;99.90;;;;;;5070646;28;20200;-80
2023/01/10 03:39:14;;;;;;;8.23;2.43;;;5.30;99.90;;;;;;5070897;28;20195;-80
2023/01/10 03:41:49;;;;;;;7.50;2.13;;;5.30;99.90;;;;;;5071482;28;20718;-80
2023/01/10 03:44:44;;;;;;;12.30;2.27;;;5.20;99.90;;;;;;5071641;28;20151;-81
2023/01/10 03:47:18;;;;;;;14.10;2.73;;;5.20;99.90;;;;;;5072285;28;20156;-81
2023/01/10 03:49:48;;;;;;;10.90;2.03;;;5.20;99.90;;;;;;5072207;28;20585;-81
2023/01/10 03:52:17;;;;;;;13.77;2.67;;;5.10;99.90;;;;;;5070006;28;20200;-80
2023/01/10 03:54:44;;;;;;;7.30;2.47;;;5.10;99.90;;;;;;5070340;28;20313;-80
2023/01/10 03:57:18;;;;;;;5.43;2.10;;;5.10;99.90;;;;;;5071947;28;20594;-81
2023/01/10 03:59:44;;;;;;;7.93;2.20;;;5.10;99.90;;;;;;5069895;28;20199;-81
2023/01/10 04:02:09;;;;;;;8.73;2.17;;;5.10;99.90;;;;;;5071593;28;20194;-80
2023/01/10 04:04:35;;;;;;;10.67;2.67;;;5.10;99.90;;;;;;5070622;28;20180;-81
2023/01/10 04:07:01;;;;;;;6.67;2.33;;;5.10;99.90;;;;;;5071414;28;20175;-80
2023/01/10 04:09:26;;;;;;;9.37;3.00;;;5.10;99.90;;;;;;5069636;28;20175;-81
2023/01/10 04:11:52;;;;;;;9.67;2.17;;;5.10;99.90;;;;;;5069905;28;20214;-80
2023/01/10 04:14:17;;;;;;;10.20;2.17;;;5.20;99.90;;;;;;5069537;28;20183;-80
2023/01/10 04:16:43;;;;;;;12.30;2.10;;;5.10;99.90;;;;;;5070835;28;20213;-80
2023/01/10 04:19:08;;;;;;;12.07;2.47;;;5.10;99.90;;;;;;5068814;28;20210;-80
2023/01/10 04:21:34;;;;;;;9.17;2.00;;;5.10;99.90;;;;;;5069885;28;20215;-80
2023/01/10 04:23:59;;;;;;;8.97;2.67;;;5.10;99.90;;;;;;5070272;28;20213;-80
2023/01/10 04:26:25;;;;;;;7.17;2.07;;;5.10;99.90;;;;;;5072367;28;20199;-80
2023/01/10 04:28:50;;;;;;;14.83;2.83;;;5.10;99.90;;;;;;5071331;28;20176;-81
2023/01/10 04:31:16;;;;;;;12.63;2.50;;;5.00;99.90;;;;;;5070908;28;20718;-80
2023/01/10 04:33:42;;;;;;;8.63;2.40;;;5.00;99.90;;;;;;5069628;28;20179;-80
2023/01/10 04:36:07;;;;;;;15.07;2.50;;;5.00;99.90;;;;;;5071424;28;20251;-80
2023/01/10 04:38:33;;;;;;;8.70;1.93;;;5.00;99.90;;;;;;5069261;28;20222;-80
2023/01/10 04:40:59;;;;;;;9.60;2.80;;;5.00;99.90;;;;;;5071282;28;20218;-81
2023/01/10 04:43:26;;;;;;;8.07;2.17;;;5.00;99.90;;;;;;5068872;28;20180;-80
2023/01/10 04:45:51;;;;;;;6.73;2.07;;;4.90;99.90;;;;;;5070835;28;20192;-80
2023/01/10 04:48:17;;;;;;;9.80;1.97;;;4.90;99.90;;;;;;5069511;28;20180;-80
2023/01/10 04:50:49;;;;;;;10.30;1.90;;;4.90;99.90;;;;;;5070260;28;20251;-80
2023/01/10 04:53:14;;;;;;;7.77;2.07;;;4.90;99.90;;;;;;5070837;28;20160;-80
2023/01/10 04:55:40;;;;;;;6.43;1.83;;;4.90;99.90;;;;;;5070604;28;20662;-79
2023/01/10 04:58:05;;;;;;;9.83;2.07;;;4.90;99.90;;;;;;5069323;28;20179;-80
2023/01/10 05:00:31;;;;;;;5.63;1.90;;;4.90;99.90;;;;;;5070625;28;20206;-80
2023/01/10 05:02:57;;;;;;;6.47;1.80;;;4.90;99.90;;;;;;5070902;28;20167;-80
2023/01/10 05:05:23;;;;;;;7.63;2.40;;;4.90;99.90;;;;;;5070361;28;20592;-80
2023/01/10 05:07:48;;;;;;;7.37;2.07;;;4.80;99.90;;;;;;5068035;28;20241;-80
2023/01/10 05:10:14;;;;;;;12.03;2.10;;;4.90;99.90;;;;;;5066675;28;20210;-80
2023/01/10 05:12:40;;;;;;;14.03;2.53;;;4.80;99.90;;;;;;5069056;28;20179;-80
2023/01/10 05:15:06;;;;;;;8.90;2.13;;;4.80;99.90;;;;;;5070052;28;20255;-80
2023/01/10 05:17:31;;;;;;;9.10;2.27;;;4.80;99.90;;;;;;5070765;28;20184;-80
2023/01/10 05:19:57;;;;;;;11.83;2.10;;;4.80;99.90;;;;;;5069665;28;20286;-81
2023/01/10 05:22:23;;;;;;;10.30;2.63;;;4.80;99.90;;;;;;5070741;28;20190;-80
2023/01/10 05:24:48;;;;;;;11.23;2.47;;;4.70;99.90;;;;;;5071902;28;20156;-80
2023/01/10 05:27:14;;;;;;;11.07;2.50;;;4.70;99.90;;;;;;5072185;28;20546;-80
2023/01/10 05:29:40;;;;;;;7.83;2.30;;;4.70;99.90;;;;;;5071997;28;20187;-80
2023/01/10 05:32:06;;;;;;;9.87;2.43;;;4.70;99.90;;;;;;5071624;28;20196;-80
2023/01/10 05:34:31;;;;;;;11.20;2.33;;;4.80;99.90;;;;;;5072700;28;20184;-81
2023/01/10 05:36:57;;;;;;;7.57;2.97;;;4.70;99.90;;;;;;5071269;28;20571;-80
2023/01/10 05:39:22;;;;;;;7.47;2.90;;;4.70;99.90;;;;;;5072222;28;20194;-79
2023/01/10 05:41:48;;;;;;;11.30;2.27;;;4.70;99.90;;;;;;5071854;28;20202;-82
2023/01/10 05:44:14;;;;;;;10.03;2.23;;;4.70;99.90;;;;;;5072674;28;20171;-82
2023/01/10 05:46:39;;;;;;;11.10;3.07;;;4.60;99.90;;;;;;5073292;28;20175;-82
2023/01/10 05:49:05;;;;;;;7.63;2.00;;;4.60;99.90;;;;;;5075711;28;20175;-82
2023/01/10 05:51:30;;;;;;;11.77;2.33;;;4.60;99.90;;;;;;5077174;28;20195;-82
2023/01/10 05:53:57;;;;;;;10.57;2.27;;;4.60;99.90;;;;;;5077106;28;20184;-82
2023/01/10 05:56:23;;;;;;;11.87;2.80;;;4.50;99.90;;;;;;5072556;28;20184;-82
2023/01/10 05:58:49;;;;;;;8.63;2.23;;;4.50;99.90;;;;;;5071897;28;20199;-82
2023/01/10 06:01:14;;;;;;;7.83;2.20;;;4.50;99.90;;;;;;5070530;28;20695;-82
2023/01/10 06:03:40;;;;;;;12.53;2.63;;;4.50;99.90;;;;;;5071587;28;20647;-82
2023/01/10 06:06:06;;;;;;;8.40;2.50;;;4.50;99.90;;;;;;5071570;28;20245;-82
2023/01/10 06:08:31;;;;;;;13.97;2.43;;;4.40;99.90;;;;;;5071547;28;20180;-82
2023/01/10 06:10:57;;;;;;;13.27;2.43;;;4.40;99.90;;;;;;5067452;28;20204;-82
2023/01/10 06:13:23;;;;;;;10.33;3.50;;;4.40;99.90;;;;;;5069652;28;20172;-81
2023/01/10 06:15:49;;;;;;;13.53;3.17;;;4.40;99.90;;;;;;5071904;28;20175;-81
2023/01/10 06:18:15;;;;;;;13.17;3.00;;;4.40;99.90;;;;;;5071527;28;20201;-82
2023/01/10 06:20:42;;;;;;;12.63;3.03;;;4.40;99.90;;;;;;5072829;28;20211;-82
2023/01/10 06:23:07;;;;;;;16.80;2.47;;;4.40;99.90;;;;;;5070885;28;20236;-81
2023/01/10 06:25:35;;;;;;;14.23;2.97;;;4.50;99.90;;;;;;5072847;28;20203;-82
2023/01/10 06:28:02;;;;;;;14.57;2.90;;;4.40;99.90;;;;;;5070892;28;20568;-79
2023/01/10 06:30:28;;;;;;;15.80;2.77;;;4.40;99.90;;;;;;5067697;28;20200;-79
2023/01/10 06:32:58;;;;;;;16.80;3.57;;;4.50;99.90;;;;;;5070035;28;20175;-79
2023/01/10 06:35:24;;;;;;;16.73;2.90;;;4.40;99.90;;;;;;5067845;28;20231;-80
2023/01/10 06:37:50;;;;;;;19.37;2.80;;;4.50;99.90;;;;;;5065370;28;20175;-79
2023/01/10 06:40:16;;;;;;;15.40;2.40;;;4.60;99.90;;;;;;5063873;28;20213;-79
2023/01/10 06:42:41;;;;;;;11.17;2.57;;;4.50;99.90;;;;;;5066672;28;20184;-79
2023/01/10 06:45:09;;;;;;;13.90;2.70;;;4.50;99.90;;;;;;5061124;28;20183;-78
2023/01/10 06:47:34;;;;;;;8.73;2.43;;;4.50;99.90;;;;;;5061514;28;20178;-82
2023/01/10 06:50:00;;;;;;;7.90;2.30;;;4.50;99.90;;;;;;5062727;28;20187;-79
2023/01/10 06:52:25;;;;;;;13.97;2.20;;;4.50;99.90;;;;;;5061540;28;20194;-78
2023/01/10 06:54:52;;;;;;;12.00;2.23;;;4.60;99.90;;;;;;5063059;28;20190;-79
2023/01/10 06:57:17;;;;;;;10.03;2.90;;;4.50;99.90;;;;;;5062787;28;20172;-78
2023/01/10 06:59:43;;;;;;;11.07;3.43;;;4.50;99.90;;;;;;5061769;28;20210;-78
2023/01/10 07:02:10;;;;;;;13.33;2.43;;;4.60;99.90;;;;;;5060026;28;20206;-78
2023/01/10 07:04:36;;;;;;;14.70;3.17;;;4.60;99.90;;;;;;5059629;28;20172;-78
2023/01/10 07:07:01;;;;;;;16.50;2.73;;;4.70;99.90;;;;;;5057804;28;20266;-78
2023/01/10 07:09:27;;;;;;;18.30;3.40;;;4.70;99.90;;;;;;5056727;28;20270;-78
2023/01/10 07:11:53;;;;;;;13.87;2.53;;;4.70;99.90;;;;;;5055735;28;20253;-78
2023/01/10 07:14:19;;;;;;;18.47;3.20;;;4.70;99.90;;;;;;5053431;28;20183;-77
2023/01/10 07:16:45;;;;;;;16.30;3.60;;;4.70;99.90;;;;;;5053207;28;20179;-78
2023/01/10 07:19:12;;;;;;;12.97;2.73;;;4.70;99.90;;;;;;5055261;28;20210;-78
2023/01/10 07:21:38;;;;;;;13.10;2.60;;;4.70;99.90;;;;;;5055967;28;20207;-78
2023/01/10 07:24:04;;;;;;;14.07;3.03;;;4.80;99.90;;;;;;5056391;28;20609;-78
2023/01/10 07:26:29;;;;;;;12.83;2.70;;;4.80;99.90;;;;;;5055391;28;20179;-78
2023/01/10 07:28:55;;;;;;;8.57;2.33;;;4.80;99.90;;;;;;5057204;28;20183;-78
2023/01/10 07:31:22;;;;;;;12.40;2.80;;;4.80;99.90;;;;;;5058326;28;20211;-79
2023/01/10 07:33:49;;;;;;;15.00;3.70;;;4.80;99.90;;;;;;5058359;28;20175;-78
2023/01/10 07:36:15;;;;;;;14.10;2.90;;;4.80;99.90;;;;;;5056510;28;20175;-78
2023/01/10 07:38:41;;;;;;;14.97;2.70;;;4.80;99.90;;;;;;5055607;28;20268;-79
2023/01/10 07:41:07;;;;;;;20.97;3.27;;;4.80;99.90;;;;;;5054210;28;20598;-78
2023/01/10 07:43:33;;;;;;;13.57;3.60;;;4.80;99.90;;;;;;5060170;28;20243;-81
2023/01/10 07:45:59;;;;;;;15.00;2.73;;;4.90;99.90;;;;;;5066169;28;20167;-79
2023/01/10 07:48:25;;;;;;;10.53;2.87;;;4.90;99.90;;;;;;5065420;28;20180;-79
2023/01/10 07:50:57;;;;;;;21.33;3.17;;;4.80;99.90;;;;;;5065951;28;20223;-78
2023/01/10 07:53:24;;;;;;;22.30;3.80;;;4.80;99.90;;;;;;5065135;28;20175;-78
2023/01/10 07:55:49;;;;;;;25.47;4.60;;;4.80;99.90;;;;;;5066348;28;20175;-78
2023/01/10 07:58:15;;;;;;;22.23;2.97;;;4.80;99.90;;;;;;5065877;28;20682;-78
2023/01/10 08:00:41;;;;;;;14.87;2.67;;;4.80;99.90;;;;;;5066373;28;20207;-78
2023/01/10 08:03:08;;;;;;;17.47;3.40;;;4.80;99.90;;;;;;5067745;28;20168;-78
2023/01/10 08:05:34;;;;;;;14.83;3.07;;;4.80;99.90;;;;;;5069514;28;20176;-78
2023/01/10 08:08:04;;;;;;;8.23;3.33;;;4.70;99.90;;;;;;5068597;28;20178;-78
2023/01/10 08:10:30;;;;;;;19.93;3.87;;;4.70;99.90;;;;;;5067313;28;20196;-78
2023/01/10 08:12:55;;;;;;;14.53;2.90;;;4.70;99.90;;;;;;5067375;28;20266;-78
2023/01/10 08:15:20;;;;;;;10.50;2.90;;;4.70;99.90;;;;;;5067172;28;20247;-78
2023/01/10 08:17:46;;;;;;;12.90;2.73;;;4.70;99.90;;;;;;5068734;28;20179;-78
2023/01/10 08:20:12;;;;;;;19.00;3.77;;;4.70;99.90;;;;;;5069146;28;20219;-79
2023/01/10 08:22:37;;;;;;;16.23;3.60;;;4.60;99.90;;;;;;5067273;28;20171;-78
2023/01/10 08:25:03;;;;;;;19.83;3.60;;;4.70;99.90;;;;;;5066807;28;20658;-79
2023/01/10 08:27:28;;;;;;;21.07;3.53;;;4.60;99.90;;;;;;5069619;28;20229;-78
2023/01/10 08:29:54;;;;;;;14.87;3.60;;;4.60;99.90;;;;;;5067980;28;20172;-79
2023/01/10 08:32:21;;;;;;;13.97;3.50;;;4.60;99.90;;;;;;5067025;28;20215;-78
2023/01/10 08:34:46;;;;;;;11.77;2.90;;;4.60;99.90;;;;;;5066762;28;20205;-78
2023/01/10 08:37:13;;;;;;;11.57;2.87;;;4.60;99.90;;;;;;5068561;28;20175;-78
2023/01/10 08:39:39;;;;;;;20.73;5.03;;;4.60;99.90;;;;;;5066555;28;20667;-78
2023/01/10 08:42:04;;;;;;;9.90;2.70;;;4.60;99.90;;;;;;5068897;28;20199;-79
2023/01/10 08:44:30;;;;;;;12.87;3.17;;;4.60;99.90;;;;;;5067347;28;20543;-78
2023/01/10 08:46:55;;;;;;;16.83;2.80;;;4.60;99.90;;;;;;5067535;28;20186;-78
2023/01/10 08:49:21;;;;;;;15.67;3.37;;;4.60;99.90;;;;;;5067923;28;20180;-78
2023/01/10 08:51:47;;;;;;;17.20;2.90;;;4.60;99.90;;;;;;5067947;28;20247;-78
2023/01/10 08:54:12;;;;;;;20.47;3.50;;;4.60;99.90;;;;;;5067066;28;20167;-78
2023/01/10 08:56:39;;;;;;;15.33;3.67;;;4.60;99.90;;;;;;5066784;28;20187;-78
2023/01/10 08:59:05;;;;;;;17.30;3.47;;;4.70;99.90;;;;;;5066681;28;20195;-79
2023/01/10 09:01:30;;;;;;;15.33;2.83;;;4.70;99.90;;;;;;5066070;28;20195;-79
2023/01/10 09:03:56;;;;;;;11.47;3.37;;;4.70;99.90;;;;;;5066349;28;20164;-78
2023/01/10 09:06:23;;;;;;;16.80;3.73;;;4.80;99.90;;;;;;5068031;28;20175;-79
2023/01/10 09:08:48;;;;;;;15.03;3.13;;;4.70;99.90;;;;;;5068534;28;20194;-79
2023/01/10 09:11:14;;;;;;;19.87;3.80;;;4.70;99.90;;;;;;5068205;28;20203;-79
2023/01/10 09:13:41;;;;;;;16.43;2.90;;;4.80;99.90;;;;;;5067155;28;20171;-78
2023/01/10 09:16:06;;;;;;;19.63;3.97;;;4.80;99.90;;;;;;5068452;28;20586;-78
2023/01/10 09:18:32;;;;;;;14.67;3.07;;;4.90;99.90;;;;;;5067090;28;20325;-78
2023/01/10 09:20:58;;;;;;;24.60;3.93;;;4.90;99.90;;;;;;5067344;28;20211;-78
2023/01/10 09:23:24;;;;;;;8.60;2.83;;;4.90;99.90;;;;;;5066780;28;20175;-78
2023/01/10 09:25:52;;;;;;;14.17;2.80;;;5.00;99.90;;;;;;5067203;28;20179;-78
2023/01/10 09:28:19;;;;;;;12.03;2.90;;;5.00;99.90;;;;;;5069207;28;20171;-78
2023/01/10 09:30:44;;;;;;;16.80;3.57;;;5.10;99.90;;;;;;5067126;28;20572;-78
2023/01/10 09:33:12;;;;;;;17.43;3.17;;;5.10;99.90;;;;;;5068478;28;20171;-79
2023/01/10 09:35:39;;;;;;;19.10;3.70;;;5.20;99.90;;;;;;5069491;28;20182;-79
2023/01/10 09:38:07;;;;;;;21.70;4.53;;;5.30;99.90;;;;;;5069212;28;20175;-79
2023/01/10 09:41:05;;;;;;;31.50;4.67;;;5.30;99.90;;;;;;5068076;28;20195;-78
2023/01/10 09:43:36;;;;;;;14.67;2.73;;;5.40;99.90;;;;;;5067961;28;20171;-78
2023/01/10 09:46:13;;;;;;;19.47;3.33;;;5.50;99.90;;;;;;5067568;28;20175;-78
2023/01/10 09:48:54;;;;;;;15.73;3.03;;;5.50;99.90;;;;;;5068325;28;20665;-79
2023/01/10 09:51:19;;;;;;;21.80;3.37;;;5.60;99.90;;;;;;5067621;28;20183;-78
2023/01/10 09:53:46;;;;;;;18.27;3.20;;;5.60;99.90;;;;;;5067685;28;20182;-78
2023/01/10 09:56:14;;;;;;;20.27;3.07;;;5.70;99.90;;;;;;5066977;28;20175;-78
2023/01/10 09:58:42;;;;;;;12.83;3.40;;;5.70;99.90;;;;;;5067254;28;20211;-79
2023/01/10 10:01:16;;;;;;;17.87;3.27;;;5.80;99.90;;;;;;5066837;28;20184;-79
2023/01/10 10:03:57;;;;;;;17.37;3.00;;;5.80;99.90;;;;;;5065629;28;20171;-78
2023/01/10 10:06:23;;;;;;;13.53;3.40;;;5.90;99.90;;;;;;5067961;28;20152;-79
2023/01/10 10:08:50;;;;;;;17.03;3.87;;;6.00;99.90;;;;;;5067484;28;20172;-79
2023/01/10 10:11:25;;;;;;;15.90;3.40;;;6.00;99.90;;;;;;5065686;28;20726;-79
2023/01/10 10:14:03;;;;;;;18.40;2.67;;;6.10;99.90;;;;;;5067274;28;20206;-78
2023/01/10 10:16:56;;;;;;;21.47;3.27;;;6.10;99.90;;;;;;5065603;28;20171;-79
2023/01/10 10:19:50;;;;;;;18.93;3.67;;;6.10;99.90;;;;;;5066290;28;20192;-78
2023/01/10 10:22:37;;;;;;;12.37;3.33;;;6.20;99.90;;;;;;5066153;28;20211;-79
2023/01/10 10:25:37;;;;;;;12.40;3.00;;;6.30;99.90;;;;;;5065558;28;20175;-79
2023/01/10 10:28:17;;;;;;;17.67;3.50;;;6.30;99.90;;;;;;5066020;28;20167;-79
2023/01/10 10:31:08;;;;;;;15.27;2.73;;;6.30;99.90;;;;;;5068265;28;20703;-78
2023/01/10 10:33:48;;;;;;;17.67;3.10;;;6.40;99.90;;;;;;5066138;28;20171;-78
2023/01/10 10:36:22;;;;;;;16.80;4.10;;;6.50;99.90;;;;;;5066530;28;20170;-78
2023/01/10 10:38:50;;;;;;;19.60;3.30;;;6.50;99.90;;;;;;5067396;28;20187;-79
2023/01/10 10:41:27;;;;;;;15.00;3.13;;;6.50;99.90;;;;;;5065940;28;20200;-79
2023/01/10 10:43:53;;;;;;;11.73;2.63;;;6.50;99.90;;;;;;5065674;28;20198;-78
2023/01/10 10:46:20;;;;;;;12.87;3.27;;;6.60;99.90;;;;;;5065413;28;20176;-79
2023/01/10 10:48:57;;;;;;;20.77;3.23;;;6.60;99.90;;;;;;5067636;28;20171;-78
2023/01/10 10:51:46;;;;;;;10.73;2.77;;;6.70;99.90;;;;;;5067371;28;20258;-79
2023/01/10 10:54:13;;;;;;;12.47;2.67;;;6.70;99.90;;;;;;5065744;28;20526;-78
2023/01/10 10:56:39;;;;;;;16.83;2.90;;;6.70;99.90;;;;;;5065610;28;20182;-79
2023/01/10 10:59:05;;;;;;;15.83;2.80;;;6.80;99.90;;;;;;5065795;28;20206;-79
2023/01/10 11:01:31;;;;;;;16.87;2.80;;;6.80;99.90;;;;;;5068471;28;20192;-79
2023/01/10 11:04:00;;;;;;;13.60;2.77;;;6.80;99.90;;;;;;5066796;28;20532;-79
2023/01/10 11:06:28;;;;;;;8.87;2.63;;;6.90;99.90;;;;;;5068526;28;20176;-79
2023/01/10 11:08:57;;;;;;;14.27;2.80;;;6.90;99.90;;;;;;5066861;28;20175;-79
2023/01/10 11:11:29;;;;;;;15.97;3.63;;;7.00;99.90;;;;;;5067327;28;20187;-79
2023/01/10 11:13:58;;;;;;;13.40;2.77;;;7.00;99.90;;;;;;5067183;28;20266;-79
2023/01/10 11:16:30;;;;;;;9.87;2.47;;;7.00;99.90;;;;;;5065851;28;20677;-79
2023/01/10 11:19:16;;;;;;;12.73;3.17;;;7.10;99.90;;;;;;5067425;28;20187;-79
2023/01/10 11:21:46;;;;;;;8.97;2.37;;;7.10;99.90;;;;;;5066200;28;20214;-78
2023/01/10 11:24:19;;;;;;;13.03;2.80;;;7.10;99.90;;;;;;5066966;28;20164;-79
2023/01/10 11:26:44;;;;;;;16.67;3.30;;;7.20;99.90;;;;;;5067630;28;20278;-79
2023/01/10 11:29:22;;;;;;;15.47;2.87;;;7.20;99.90;;;;;;5068448;28;20184;-78
2023/01/10 11:31:49;;;;;;;18.43;3.00;;;7.20;99.90;;;;;;5070976;28;20675;-79
2023/01/10 11:34:23;;;;;;;16.77;3.43;;;7.30;99.90;;;;;;5070426;28;20619;-79
2023/01/10 11:36:55;;;;;;;14.20;3.20;;;7.30;99.90;;;;;;5070290;28;20216;-78
2023/01/10 11:39:21;;;;;;;22.63;3.70;;;7.30;99.90;;;;;;5070378;28;20204;-81
2023/01/10 11:41:48;;;;;;;15.23;3.27;;;7.40;99.90;;;;;;5070441;28;20255;-80
2023/01/10 11:44:19;;;;;;;17.27;2.87;;;7.40;99.90;;;;;;5070315;28;20175;-80
2023/01/10 11:46:47;;;;;;;12.03;2.50;;;7.40;99.90;;;;;;5069595;28;20182;-79
2023/01/10 11:49:20;;;;;;;10.10;3.33;;;7.50;99.90;;;;;;5070509;28;20168;-80
2023/01/10 11:51:49;;;;;;;9.53;2.60;;;7.50;99.90;;;;;;5071248;28;20200;-80
2023/01/10 11:54:24;;;;;;;14.47;2.70;;;7.50;99.90;;;;;;5070856;28;20180;-80
2023/01/10 11:57:07;;;;;;;17.43;3.13;;;7.50;99.90;;;;;;5068309;28;20225;-78
2023/01/10 11:59:33;;;;;;;16.13;3.17;;;7.60;99.90;;;;;;5068865;28;20199;-79
2023/01/10 12:02:12;;;;;;;21.70;2.87;;;7.60;99.90;;;;;;5068873;28;20234;-79
2023/01/10 12:04:46;;;;;;;12.57;2.80;;;7.60;99.90;;;;;;5069389;28;20250;-80
2023/01/10 12:07:12;;;;;;;15.63;3.07;;;7.60;99.90;;;;;;5070323;28;20163;-80
2023/01/10 12:09:55;;;;;;;12.83;2.07;;;7.70;99.90;;;;;;5070024;28;20259;-80
2023/01/10 12:12:33;;;;;;;22.43;3.90;;;7.70;99.90;;;;;;5070012;28;20175;-80
2023/01/10 12:15:20;;;;;;;15.57;3.00;;;7.70;99.90;;;;;;5069638;28;20213;-80
2023/01/10 12:17:46;;;;;;;14.67;3.10;;;7.80;99.90;;;;;;5068047;28;20211;-79
2023/01/10 12:20:14;;;;;;;14.67;2.67;;;7.80;99.90;;;;;;5067030;28;20269;-80
2023/01/10 12:22:41;;;;;;;15.07;3.00;;;7.80;99.90;;;;;;5067494;28;20168;-79
2023/01/10 12:25:20;;;;;;;14.60;2.80;;;7.80;99.90;;;;;;5064880;28;20281;-80
2023/01/10 12:27:49;;;;;;;11.93;2.40;;;7.80;99.90;;;;;;5063912;28;20262;-80
2023/01/10 12:30:35;;;;;;;13.83;3.07;;;7.90;99.90;;;;;;5060925;28;20282;-79
2023/01/10 12:33:08;;;;;;;10.70;2.63;;;7.90;99.90;;;;;;5060433;28;20213;-81
2023/01/10 12:35:57;;;;;;;14.17;2.97;;;7.90;99.90;;;;;;5059012;28;20163;-81
2023/01/10 12:44:29;;;;;;;15.50;3.03;;;8.00;99.90;;;;;;5057298;28;20651;-81
2023/01/10 12:47:18;;;;;;;10.47;2.90;;;8.00;99.90;;;;;;5054866;28;20171;-81
2023/01/10 12:49:47;;;;;;;14.13;2.63;;;8.00;99.90;;;;;;5055373;28;20166;-81
2023/01/10 12:52:29;;;;;;;12.33;2.40;;;8.10;99.90;;;;;;5058958;28;20193;-81
2023/01/10 12:54:55;;;;;;;9.90;2.30;;;8.10;99.90;;;;;;5058709;28;20165;-80
2023/01/10 12:57:34;;;;;;;11.03;2.23;;;8.10;99.90;;;;;;5056928;28;20176;-81
2023/01/10 13:00:06;;;;;;;11.60;2.37;;;8.10;99.90;;;;;;5057013;28;20207;-81
2023/01/10 13:02:42;;;;;;;12.03;2.60;;;8.10;99.90;;;;;;5056883;28;20251;-81
2023/01/10 13:05:16;;;;;;;10.57;2.07;;;8.10;99.90;;;;;;5056497;28;20699;-81
2023/01/10 13:07:43;;;;;;;12.33;2.33;;;8.10;99.90;;;;;;5055776;28;20164;-81
2023/01/10 13:10:14;;;;;;;11.47;2.57;;;8.20;99.90;;;;;;5057302;28;20182;-82
2023/01/10 13:12:44;;;;;;;10.40;2.37;;;8.10;99.90;;;;;;5057332;28;20175;-81
2023/01/10 13:15:25;;;;;;;11.23;2.67;;;8.20;99.90;;;;;;5057229;28;20263;-81